Tocumen International Airport
MPTO : rendu visible

Aérodrome :











RETROUVEZ-NOUS SUR...

 
LOGIN :

S'inscrire | Disclaimer

   EN    FR    IT 

 









Légende :    VFR   VFR Marginal   IFR   IFR Intensif   IFR Très Intensif
Visi : 
Plafond : 
>= 8 km
>= 3000ft
5 à 8 km
1000 à 3000 ft
1500m à 5 km
500 à 1000 ft
800 à 1500m
200 à 500 ft
< 800m
< 200 ft
Symboles :   Orages  Brouillard  Fortes neiges  Fortes précipitations  Vent > 20 kt






- Altitude de l'aérodrome : 135 ft
- Code IATA : PTY


MPTO - Tocumen International

DERNIER METAR :
  • 070100Z 23003KT 9999 FEW008 SCT017 SCT090 26/24 Q1011 NOSIG

METARs EXPIRÉS :
  • 070000Z 16003KT 9999 SCT018 SCT090 25/24 Q1011 RWY DAMP NOSIG
  • 062300Z 06008KT 9000 VCSH FEW008 SCT018 BKN080 26/24 Q1010 RETSRA RWY WET NOSIG
  • 062226Z 36009KT 6000 -TSRA FEW008 SCT014CB BKN080 26/25 Q1010 RWY WET BECMG AT 2330 NSW

TAF TAF MPTO
Valide du 07 à 00h jusqu'au 08 à 06h UTC


062330Z 0700/0806 29006KT 9999 SCT018 SCT090
TEMPO 0706/0708 00000KT
PROB30
TEMPO 0717/0719 16008KT 6000 SHRA SCT016CB BKN080



MET'MAP, la Météo Aéronautique d'un coup d'oeil ! - Copyright ORBIFLY Décembre 2007 - Disclaimer

ORBIFLY MET'MAP TEAM :

Programmation & Développement : Alexandra Zaïnal
Sur une idée originale de : Baudouin d'Aumeries
Assistance à la programmation : Marc-Olivier Méhu
Soutien technique & logistique : Manuel Goepfert

Contact : metmap@orbifly.com




SOURCES & CREDITS :

   NOAA       Earth
Advisory